createdAt,value
2022-12-11T00:04:43.947Z,0
2022-12-11T00:06:45.180Z,0
2022-12-11T00:08:49.440Z,0.1
2022-12-11T00:10:50.541Z,0
2022-12-11T00:12:51.648Z,0
2022-12-11T00:14:52.746Z,0
2022-12-11T00:16:53.970Z,0.1
2022-12-11T00:18:55.013Z,0
2022-12-11T00:20:56.096Z,0
2022-12-11T00:29:03.797Z,0.1
2022-12-11T00:31:04.884Z,0.1
2022-12-11T00:35:07.134Z,0
2022-12-11T00:37:11.551Z,0.1
2022-12-11T00:42:15.901Z,0
2022-12-11T00:46:18.178Z,0.1
2022-12-11T00:48:19.261Z,0.1
2022-12-11T00:52:24.711Z,0.1
2022-12-11T00:54:25.834Z,0.2
2022-12-11T00:56:26.931Z,0.1
2022-12-11T00:58:28.054Z,0.1
2022-12-11T01:00:29.200Z,0.1
2022-12-11T01:02:30.341Z,0.1
2022-12-11T01:04:34.650Z,0.1
2022-12-11T01:06:35.760Z,0.2
2022-12-11T01:08:38.746Z,0.2
2022-12-11T01:10:37.994Z,0.2
2022-12-11T01:12:39.098Z,0.2
2022-12-11T01:14:40.234Z,0.2
2022-12-11T01:16:41.346Z,0.2
2022-12-11T01:18:45.707Z,0.2
2022-12-11T01:20:46.797Z,0.2
2022-12-11T01:24:49.043Z,0.2
2022-12-11T01:26:50.160Z,0.2
2022-12-11T01:28:51.302Z,0.2
2022-12-11T01:30:52.429Z,0.2
2022-12-11T01:32:56.759Z,0.2
2022-12-11T01:34:57.872Z,0.2
2022-12-11T01:39:27.444Z,0.3
2022-12-11T01:41:28.557Z,0.3
2022-12-11T01:43:29.685Z,0.3
2022-12-11T01:45:34.047Z,0.3
2022-12-11T01:47:35.166Z,0.3
2022-12-11T01:49:36.274Z,0.3
2022-12-11T01:51:37.381Z,0.3
2022-12-11T01:59:45.107Z,0.3
2022-12-11T02:01:46.211Z,0.3
2022-12-11T02:03:47.341Z,0.4
2022-12-11T02:05:48.472Z,0.4
2022-12-11T02:15:57.412Z,0.4
2022-12-11T02:17:58.423Z,0.4
2022-12-11T02:19:59.520Z,0.5
2022-12-11T02:22:02.254Z,0.4
2022-12-11T02:26:04.400Z,0.4
2022-12-11T02:30:09.909Z,0.5
2022-12-11T02:32:10.998Z,0.5
2022-12-11T02:33:13.233Z,0.5
2022-12-11T02:35:14.335Z,0.5
2022-12-11T02:37:15.459Z,0.5
2022-12-11T02:39:16.554Z,0.6
2022-12-11T02:43:22.096Z,0.5
2022-12-11T02:45:23.218Z,0.6
2022-12-11T02:47:24.331Z,0.6
2022-12-11T02:49:25.460Z,0.5
2022-12-11T02:51:26.575Z,0.5
2022-12-11T02:53:27.695Z,0.5
2022-12-11T02:57:33.225Z,0.5
2022-12-11T02:59:34.342Z,0.5
2022-12-11T03:01:35.602Z,0.5
2022-12-11T03:03:36.804Z,0.6
2022-12-11T03:05:37.764Z,0.6
2022-12-11T03:07:38.896Z,0.5
2022-12-11T03:11:44.379Z,0.5
2022-12-11T03:13:45.522Z,0.5
2022-12-11T03:15:46.616Z,0.5
2022-12-11T03:19:48.870Z,0.5
2022-12-11T03:23:54.399Z,0.6
2022-12-11T03:25:55.529Z,0.5
2022-12-11T03:28:58.850Z,0.5
2022-12-11T03:31:00.043Z,0.6
2022-12-11T03:33:01.119Z,0.6
2022-12-11T03:35:02.283Z,0.5
2022-12-11T03:37:06.623Z,0.5
2022-12-11T03:39:07.749Z,0.5
2022-12-11T03:41:08.863Z,0.5
2022-12-11T03:43:09.987Z,0.5
2022-12-11T03:57:21.149Z,0.5
2022-12-11T04:03:24.546Z,0.5
2022-12-11T04:05:28.948Z,0.6
2022-12-11T04:17:35.700Z,0.6
2022-12-11T04:24:44.535Z,0.6
2022-12-11T04:26:45.630Z,0.6
2022-12-11T04:28:46.785Z,0.6
2022-12-11T04:30:47.939Z,0.6
2022-12-11T04:32:52.275Z,0.6
2022-12-11T04:34:53.402Z,0.6
2022-12-11T04:36:54.522Z,0.6
2022-12-11T04:38:55.650Z,0.7
2022-12-11T04:40:56.801Z,0.7
2022-12-11T04:42:57.918Z,0.6
2022-12-11T04:44:59.046Z,0.7
2022-12-11T04:47:03.411Z,0.6
2022-12-11T04:49:04.548Z,0.6
2022-12-11T04:51:05.686Z,0.7
2022-12-11T04:53:06.847Z,0.7
2022-12-11T04:55:08.248Z,0.7
2022-12-11T04:57:09.066Z,0.7
2022-12-11T04:59:10.218Z,0.7
2022-12-11T05:01:14.735Z,0.7
2022-12-11T05:03:15.759Z,0.7
2022-12-11T05:05:16.865Z,0.7
2022-12-11T05:07:18.008Z,0.7
2022-12-11T05:09:19.111Z,0.7
2022-12-11T05:11:20.266Z,0.7
2022-12-11T05:13:21.385Z,0.7
2022-12-11T05:15:25.765Z,0.7
2022-12-11T05:17:26.899Z,0.7
2022-12-11T05:19:28.032Z,0.8
2022-12-11T05:21:54.596Z,0.8
2022-12-11T05:30:02.383Z,0.7
2022-12-11T05:34:04.616Z,0.8
2022-12-11T05:36:05.728Z,0.8
2022-12-11T05:38:06.863Z,0.8
2022-12-11T05:40:07.983Z,0.8
2022-12-11T05:42:12.391Z,0.8
2022-12-11T05:44:13.516Z,0.8
2022-12-11T05:46:14.706Z,0.8
2022-12-11T05:48:15.747Z,0.8
2022-12-11T05:50:16.915Z,0.8
2022-12-11T05:54:19.141Z,0.9
2022-12-11T05:56:23.524Z,0.9
2022-12-11T05:58:24.672Z,0.9
2022-12-11T06:00:25.799Z,0.9
2022-12-11T06:02:27.018Z,0.8
2022-12-11T06:04:28.034Z,0.8
2022-12-11T06:06:29.147Z,0.9
2022-12-11T06:08:30.280Z,0.9
2022-12-11T06:10:34.692Z,0.9
2022-12-11T06:12:35.918Z,0.9
2022-12-11T06:14:36.919Z,0.9
2022-12-11T06:15:39.111Z,0.9
2022-12-11T06:17:40.261Z,0.9
2022-12-11T06:19:41.393Z,0.9
2022-12-11T06:21:42.533Z,0.9
2022-12-11T06:23:46.960Z,0.9
2022-12-11T06:25:48.044Z,0.9
2022-12-11T06:27:49.223Z,0.9
2022-12-11T06:29:50.341Z,0.9
2022-12-11T06:31:51.602Z,0.9
2022-12-11T06:33:52.613Z,1
2022-12-11T06:35:53.718Z,1
2022-12-11T06:37:58.128Z,0.9
2022-12-11T06:39:59.258Z,1
2022-12-11T06:42:00.351Z,1
2022-12-11T06:44:01.514Z,0.9
2022-12-11T06:46:04.390Z,0.9
2022-12-11T06:48:03.751Z,1
2022-12-11T06:50:04.890Z,0.9
2022-12-11T06:52:11.549Z,1
2022-12-11T06:54:10.416Z,1
2022-12-11T06:56:11.588Z,0.9
2022-12-11T06:58:12.704Z,1
2022-12-11T07:00:13.853Z,1
2022-12-11T07:02:15.032Z,1
2022-12-11T07:04:16.109Z,1
2022-12-11T07:06:20.528Z,1
2022-12-11T07:08:21.778Z,0.9
2022-12-11T07:10:22.768Z,1
2022-12-11T07:11:24.936Z,1
2022-12-11T07:13:26.065Z,1
2022-12-11T07:15:27.227Z,1
2022-12-11T07:17:28.334Z,0.9
2022-12-11T07:19:32.737Z,0.9
2022-12-11T07:21:33.863Z,0.9
2022-12-11T07:23:34.992Z,0.9
2022-12-11T07:25:36.153Z,0.9
2022-12-11T07:27:37.287Z,0.9
2022-12-11T07:29:38.431Z,0.9
2022-12-11T07:31:39.634Z,0.9
2022-12-11T07:33:43.909Z,1
2022-12-11T07:35:45.057Z,1
2022-12-11T07:37:46.189Z,1
2022-12-11T07:39:47.304Z,0.9
2022-12-11T07:41:48.437Z,1
2022-12-11T07:43:49.540Z,1
2022-12-11T07:47:55.098Z,1
2022-12-11T07:49:56.204Z,1
2022-12-11T07:51:57.376Z,1
2022-12-11T07:53:58.471Z,1
2022-12-11T07:55:59.621Z,1
2022-12-11T07:58:00.767Z,1
2022-12-11T08:00:01.969Z,1
2022-12-11T08:02:06.293Z,1
2022-12-11T08:04:07.409Z,0.9
2022-12-11T08:06:08.545Z,0.9
2022-12-11T08:07:10.733Z,0.9
2022-12-11T08:09:14.805Z,0.9
2022-12-11T08:11:14.528Z,0.9
2022-12-11T08:13:15.645Z,0.9
2022-12-11T08:15:20.052Z,1
2022-12-11T08:17:25.875Z,1
2022-12-11T08:19:22.327Z,0.9
2022-12-11T08:21:23.433Z,0.9
2022-12-11T08:31:32.352Z,0.9
2022-12-11T08:33:33.498Z,0.9
2022-12-11T08:35:34.636Z,0.9
2022-12-11T08:41:38.041Z,0.9
2022-12-11T08:43:42.420Z,0.9
2022-12-11T08:45:43.617Z,0.9
2022-12-11T08:47:44.685Z,0.8
2022-12-11T08:49:45.807Z,0.8
2022-12-11T08:51:46.946Z,0.8
2022-12-11T08:53:48.089Z,0.8
2022-12-11T08:55:49.201Z,0.8
2022-12-11T08:59:54.700Z,0.7
2022-12-11T09:04:24.307Z,0.7
2022-12-11T09:06:25.426Z,0.7
2022-12-11T09:08:26.585Z,0.7
2022-12-11T09:10:30.975Z,0.7
2022-12-11T09:12:32.126Z,0.7
2022-12-11T09:14:33.199Z,0.8
2022-12-11T09:16:34.309Z,0.8
2022-12-11T09:18:35.455Z,0.8
2022-12-11T09:20:36.601Z,0.8
2022-12-11T09:22:37.683Z,0.8
2022-12-11T09:24:42.066Z,0.7
2022-12-11T09:26:43.193Z,0.7
2022-12-11T09:28:46.210Z,0.8
2022-12-11T09:34:47.725Z,0.8
2022-12-11T09:36:48.846Z,0.8
2022-12-11T09:38:53.218Z,0.7
2022-12-11T09:40:54.372Z,0.7
2022-12-11T09:46:57.766Z,0.6
2022-12-11T09:48:58.873Z,0.7
2022-12-11T09:50:59.966Z,0.7
2022-12-11T09:53:04.346Z,0.7
2022-12-11T09:55:05.446Z,0.7
2022-12-11T09:58:08.768Z,0.8
2022-12-11T10:00:09.864Z,0.8
2022-12-11T10:02:11.001Z,0.7
2022-12-11T10:04:12.110Z,0.8
2022-12-11T10:06:16.507Z,0.8
2022-12-11T10:08:17.702Z,0.8
2022-12-11T10:10:18.812Z,0.8
2022-12-11T10:12:19.908Z,0.7
2022-12-11T10:14:21.020Z,0.6
2022-12-11T10:16:22.177Z,0.7
2022-12-11T10:18:23.268Z,0.8
2022-12-11T10:20:27.677Z,0.7
2022-12-11T10:22:28.773Z,0.7
2022-12-11T10:25:07.591Z,0.8
2022-12-11T10:26:31.047Z,0.8
2022-12-11T10:28:32.178Z,0.8
2022-12-11T10:34:38.794Z,0.8
2022-12-11T10:40:42.182Z,0.9
2022-12-11T10:42:45.706Z,0.9
2022-12-11T10:44:44.378Z,0.9
2022-12-11T10:46:45.593Z,0.9
2022-12-11T10:48:49.898Z,0.9
2022-12-11T10:50:51.021Z,0.9
2022-12-11T10:52:52.150Z,0.9
2022-12-11T10:53:54.353Z,1
2022-12-11T10:55:55.584Z,0.9
2022-12-11T10:57:56.631Z,1
2022-12-11T10:59:57.736Z,1
2022-12-11T11:02:02.213Z,1
2022-12-11T11:04:03.270Z,1
2022-12-11T11:06:04.421Z,1
2022-12-11T11:08:05.580Z,1.1
2022-12-11T11:10:06.649Z,1.1
2022-12-11T11:12:08.239Z,1
2022-12-11T11:14:08.918Z,1.1
2022-12-11T11:16:13.361Z,1.1
2022-12-11T11:20:15.717Z,1.1
2022-12-11T11:22:16.626Z,1.2
2022-12-11T11:24:17.796Z,1.2
2022-12-11T11:26:18.906Z,1.3
2022-12-11T11:36:27.782Z,1.3
2022-12-11T11:38:28.909Z,1.3
2022-12-11T11:40:30.060Z,1.3
2022-12-11T11:42:31.164Z,1.3
2022-12-11T11:44:35.568Z,1.3
2022-12-11T11:48:37.815Z,1.3
2022-12-11T11:51:41.162Z,1.3
2022-12-11T11:57:47.853Z,1.3
2022-12-11T11:59:48.959Z,1.2
2022-12-11T12:03:51.247Z,1.3
2022-12-11T12:09:54.771Z,1.4
2022-12-11T12:11:59.079Z,1.4
2022-12-11T12:14:00.246Z,1.4
2022-12-11T12:18:02.483Z,1.4
2022-12-11T12:20:03.657Z,1.3
2022-12-11T12:22:04.754Z,1.3
2022-12-11T12:24:05.917Z,1.3
2022-12-11T12:26:10.329Z,1.3
2022-12-11T12:28:11.473Z,1.2
2022-12-11T12:30:15.116Z,1.3
2022-12-11T12:32:13.740Z,1.2
2022-12-11T12:34:14.899Z,1.3
2022-12-11T12:36:16.027Z,1.3
2022-12-11T12:38:17.154Z,1.2
2022-12-11T12:40:21.517Z,1.3
2022-12-11T12:42:22.696Z,1.3
2022-12-11T12:44:23.944Z,1.2
2022-12-11T12:46:52.290Z,1.2
2022-12-11T12:52:59.011Z,1.2
2022-12-11T12:55:00.152Z,1.2
2022-12-11T13:05:05.853Z,1.3
2022-12-11T13:07:10.241Z,1.4
2022-12-11T13:09:11.412Z,1.3
2022-12-11T13:11:12.542Z,1.3
2022-12-11T13:13:13.696Z,1.3
2022-12-11T13:15:14.843Z,1.3
2022-12-11T13:17:15.977Z,1.2
2022-12-11T13:19:17.120Z,1.2
2022-12-11T13:21:21.532Z,1.2
2022-12-11T13:23:22.725Z,1.2
2022-12-11T13:25:23.841Z,1.2
2022-12-11T13:27:24.958Z,1.2
2022-12-11T13:29:26.101Z,1.2
2022-12-11T13:33:28.403Z,1.3
2022-12-11T13:37:33.926Z,1.2
2022-12-11T13:39:35.049Z,1.3
2022-12-11T13:40:37.249Z,1.3
2022-12-11T13:42:38.370Z,1.2
2022-12-11T13:44:39.513Z,1.2
2022-12-11T13:46:40.641Z,1.2
2022-12-11T13:48:45.055Z,1.2
2022-12-11T13:50:46.208Z,1.2
2022-12-11T13:52:47.347Z,1.2
2022-12-11T13:54:48.473Z,1.2
2022-12-11T13:56:49.614Z,1.3
2022-12-11T13:58:50.765Z,1.3
2022-12-11T14:02:57.801Z,1.3
2022-12-11T14:04:58.942Z,1.2
2022-12-11T14:07:00.118Z,1.3
2022-12-11T14:09:01.221Z,1.2
2022-12-11T14:11:02.394Z,1.2
2022-12-11T14:13:03.484Z,1.3
2022-12-11T14:15:04.621Z,1.2
2022-12-11T14:17:09.012Z,1.2
2022-12-11T14:19:10.158Z,1.2
2022-12-11T14:21:11.290Z,1.2
2022-12-11T14:23:12.445Z,1.2
2022-12-11T14:27:14.727Z,1.2
2022-12-11T14:29:15.846Z,1.2
2022-12-11T14:35:22.527Z,1.2
2022-12-11T14:36:24.731Z,1.1
2022-12-11T14:38:25.852Z,1.2
2022-12-11T14:40:26.994Z,1.2
2022-12-11T14:42:28.119Z,1.2
2022-12-11T14:44:32.490Z,1.2
2022-12-11T14:46:33.643Z,1.2
2022-12-11T14:48:34.760Z,1.2
2022-12-11T14:52:37.033Z,1.2
2022-12-11T14:54:38.167Z,1.2
2022-12-11T14:56:39.303Z,1.1
2022-12-11T14:58:43.673Z,1.1
2022-12-11T15:00:44.804Z,1.1
2022-12-11T15:02:46.025Z,1.1
2022-12-11T15:04:47.082Z,1.1
2022-12-11T15:06:48.234Z,1.1
2022-12-11T15:08:49.364Z,1.1
2022-12-11T15:10:54.328Z,1
2022-12-11T15:12:54.856Z,1.1
2022-12-11T15:14:56.004Z,1.1
2022-12-11T15:16:57.213Z,1
2022-12-11T15:18:58.287Z,1
2022-12-11T15:20:59.421Z,1
2022-12-11T15:23:00.541Z,1
2022-12-11T15:25:01.695Z,1
2022-12-11T15:27:06.054Z,1.1
2022-12-11T15:29:07.160Z,1.1
2022-12-11T15:31:08.382Z,1.1
2022-12-11T15:32:10.484Z,1.1
2022-12-11T15:34:11.650Z,1
2022-12-11T15:36:12.739Z,1.1
2022-12-11T15:38:13.893Z,1.1
2022-12-11T15:40:18.300Z,1
2022-12-11T15:42:19.435Z,1
2022-12-11T15:44:20.578Z,1
2022-12-11T15:46:21.763Z,1
2022-12-11T15:48:22.816Z,1
2022-12-11T15:50:23.959Z,1.1
2022-12-11T15:52:25.134Z,1.1
2022-12-11T15:54:29.494Z,1.1
2022-12-11T15:56:30.624Z,1
2022-12-11T15:58:31.750Z,1.1
2022-12-11T16:00:32.861Z,1.1
2022-12-11T16:02:34.088Z,1
2022-12-11T16:04:35.187Z,1.1
2022-12-11T16:06:36.296Z,1
2022-12-11T16:08:40.700Z,1
2022-12-11T16:10:41.810Z,1
2022-12-11T16:12:42.983Z,1
2022-12-11T16:14:44.108Z,1.1
2022-12-11T16:16:45.251Z,1.1
2022-12-11T16:18:46.372Z,1.1
2022-12-11T16:20:47.490Z,1.1
2022-12-11T16:22:51.917Z,1
2022-12-11T16:24:53.073Z,1
2022-12-11T16:26:54.175Z,1.1
2022-12-11T16:29:22.631Z,1.1
2022-12-11T16:31:23.874Z,1
2022-12-11T16:33:24.924Z,1
2022-12-11T16:39:29.476Z,1
2022-12-11T16:41:30.610Z,1
2022-12-11T16:43:31.774Z,1
2022-12-11T16:45:32.911Z,1
2022-12-11T16:47:34.036Z,1
2022-12-11T16:49:38.446Z,1
2022-12-11T16:51:39.576Z,1
2022-12-11T16:53:40.733Z,1
2022-12-11T16:55:41.857Z,0.9
2022-12-11T16:57:42.988Z,1
2022-12-11T16:59:44.152Z,0.9
2022-12-11T17:01:45.391Z,0.9
2022-12-11T17:03:49.719Z,0.9
2022-12-11T17:05:50.794Z,0.9
2022-12-11T17:07:51.973Z,0.9
2022-12-11T17:09:53.086Z,0.9
2022-12-11T17:11:54.223Z,1
2022-12-11T17:13:55.326Z,1
2022-12-11T17:18:00.912Z,0.9
2022-12-11T17:20:02.005Z,1
2022-12-11T17:22:03.150Z,0.9
2022-12-11T17:23:05.367Z,0.9
2022-12-11T17:31:13.210Z,0.9
2022-12-11T17:33:14.304Z,0.9
2022-12-11T17:35:15.424Z,0.9
2022-12-11T17:37:16.565Z,0.8
2022-12-11T17:39:17.723Z,0.8
2022-12-11T17:41:21.036Z,0.8
2022-12-11T17:43:20.010Z,0.8
2022-12-11T17:45:24.421Z,0.8
2022-12-11T17:47:25.541Z,0.8
2022-12-11T17:49:26.748Z,0.8
2022-12-11T17:51:27.789Z,0.9
2022-12-11T17:53:28.931Z,0.8
2022-12-11T17:55:30.159Z,0.8
2022-12-11T17:57:31.219Z,0.8
2022-12-11T17:59:35.609Z,0.8
2022-12-11T18:01:36.768Z,0.8
2022-12-11T18:03:38.023Z,0.8
2022-12-11T18:05:39.006Z,0.8
2022-12-11T18:07:40.157Z,0.8
2022-12-11T18:09:41.265Z,0.8
2022-12-11T18:11:42.378Z,0.8
2022-12-11T18:13:46.759Z,0.8
2022-12-11T18:17:49.041Z,0.8
2022-12-11T18:18:51.206Z,0.8
2022-12-11T18:20:52.320Z,0.7
2022-12-11T18:29:00.159Z,0.8
2022-12-11T18:31:01.338Z,0.8
2022-12-11T18:35:03.526Z,0.8
2022-12-11T18:37:04.667Z,0.8
2022-12-11T18:39:05.793Z,0.8
2022-12-11T18:41:10.175Z,0.7
2022-12-11T18:43:11.316Z,0.7
2022-12-11T18:45:12.822Z,0.7
2022-12-11T18:47:13.555Z,0.8
2022-12-11T18:49:14.681Z,0.7
2022-12-11T18:51:15.790Z,0.7
2022-12-11T18:55:21.343Z,0.7
2022-12-11T18:57:22.430Z,0.7
2022-12-11T18:59:23.571Z,0.7
2022-12-11T19:01:24.749Z,0.7
2022-12-11T19:03:25.871Z,0.7
2022-12-11T19:05:27.001Z,0.7
2022-12-11T19:07:28.129Z,0.7
2022-12-11T19:09:37.015Z,0.7
2022-12-11T19:11:33.627Z,0.7
2022-12-11T19:13:34.770Z,0.7
2022-12-11T19:14:36.926Z,0.7
2022-12-11T19:16:38.131Z,0.7
2022-12-11T19:18:39.210Z,0.7
2022-12-11T19:20:50.017Z,0.6
2022-12-11T19:22:44.724Z,0.6
2022-12-11T19:24:45.825Z,0.6
2022-12-11T19:26:46.957Z,0.6
2022-12-11T19:28:48.075Z,0.7
2022-12-11T19:30:49.228Z,0.7
2022-12-11T19:32:50.368Z,0.7
2022-12-11T19:39:01.428Z,0.7
2022-12-11T19:42:59.233Z,0.7
2022-12-11T19:45:00.314Z,0.7
2022-12-11T19:47:01.456Z,0.7
2022-12-11T19:49:02.561Z,0.7
2022-12-11T19:51:08.496Z,0.7
2022-12-11T19:53:09.627Z,0.7
2022-12-11T19:55:11.058Z,0.7
2022-12-11T19:57:11.850Z,0.8
2022-12-11T20:01:14.139Z,0.7
2022-12-11T20:03:15.228Z,0.7
2022-12-11T20:05:19.581Z,0.7
2022-12-11T20:07:21.608Z,0.7
2022-12-11T20:09:21.910Z,0.7
2022-12-11T20:11:50.302Z,0.7
2022-12-11T20:13:51.472Z,0.7
2022-12-11T20:15:52.628Z,0.7
2022-12-11T20:17:56.969Z,0.6
2022-12-11T20:19:58.096Z,0.6
2022-12-11T20:21:59.210Z,0.6
2022-12-11T20:24:00.343Z,0.7
2022-12-11T20:26:01.449Z,0.7
2022-12-11T20:28:02.636Z,0.7
2022-12-11T20:30:03.725Z,0.7
2022-12-11T20:32:08.129Z,0.7
2022-12-11T20:34:09.243Z,0.7
2022-12-11T20:36:10.383Z,0.7
2022-12-11T20:38:11.502Z,0.7
2022-12-11T20:40:12.638Z,0.7
2022-12-11T20:42:13.721Z,0.7
2022-12-11T20:44:14.851Z,0.6
2022-12-11T20:46:19.265Z,0.7
2022-12-11T20:48:20.425Z,0.7
2022-12-11T20:50:21.495Z,0.6
2022-12-11T20:52:22.600Z,0.6
2022-12-11T20:54:23.744Z,0.6
2022-12-11T20:56:24.833Z,0.6
2022-12-11T21:02:31.528Z,0.6
2022-12-11T21:04:32.579Z,0.6
2022-12-11T21:05:34.813Z,0.6
2022-12-11T21:07:35.901Z,0.7
2022-12-11T21:09:37.012Z,0.7
2022-12-11T21:11:38.120Z,0.7
2022-12-11T21:13:42.510Z,0.6
2022-12-11T21:15:43.612Z,0.6
2022-12-11T21:17:44.743Z,0.6
2022-12-11T21:19:45.850Z,0.7
2022-12-11T21:21:46.976Z,0.6
2022-12-11T21:23:48.094Z,0.6
2022-12-11T21:25:49.226Z,0.6
2022-12-11T21:27:53.592Z,0.6
2022-12-11T21:29:54.719Z,0.6
2022-12-11T21:31:55.888Z,0.6
2022-12-11T21:33:56.956Z,0.6
2022-12-11T21:35:58.124Z,0.6
2022-12-11T21:37:59.198Z,0.6
2022-12-11T21:40:00.395Z,0.6
2022-12-11T21:42:04.675Z,0.6
2022-12-11T21:46:07.222Z,0.6
2022-12-11T21:48:08.089Z,0.6
2022-12-11T21:50:09.160Z,0.6
2022-12-11T21:52:10.301Z,0.6
2022-12-11T21:54:11.439Z,0.6
2022-12-11T21:56:15.786Z,0.6
2022-12-11T21:58:16.933Z,0.6
2022-12-11T22:00:18.043Z,0.6
2022-12-11T22:01:20.262Z,0.6
2022-12-11T22:03:21.355Z,0.6
2022-12-11T22:05:22.562Z,0.6
2022-12-11T22:07:23.662Z,0.6
2022-12-11T22:09:28.040Z,0.6
2022-12-11T22:11:29.117Z,0.5
2022-12-11T22:13:30.251Z,0.5
2022-12-11T22:17:32.468Z,0.5
2022-12-11T22:19:33.563Z,0.6
2022-12-11T22:21:34.659Z,0.6
2022-12-11T22:23:39.032Z,0.6
2022-12-11T22:25:40.164Z,0.5
2022-12-11T22:27:41.285Z,0.6
2022-12-11T22:29:42.405Z,0.6
2022-12-11T22:31:43.542Z,0.6
2022-12-11T22:33:44.646Z,0.6
2022-12-11T22:35:45.772Z,0.6
2022-12-11T22:37:50.145Z,0.6
2022-12-11T22:39:51.279Z,0.6
2022-12-11T22:41:52.394Z,0.6
2022-12-11T22:57:05.667Z,0.6
2022-12-11T22:59:06.792Z,0.6
2022-12-11T23:01:07.877Z,0.6
2022-12-11T23:03:09.221Z,0.6
2022-12-11T23:05:13.742Z,0.6
2022-12-11T23:07:14.506Z,0.6
2022-12-11T23:09:15.646Z,0.6
2022-12-11T23:11:16.757Z,0.6
2022-12-11T23:13:17.886Z,0.6
2022-12-11T23:15:18.988Z,0.7
2022-12-11T23:17:20.106Z,0.7
2022-12-11T23:19:25.789Z,0.7
2022-12-11T23:21:25.635Z,0.7
2022-12-11T23:23:26.741Z,0.7
2022-12-11T23:25:27.888Z,0.6
2022-12-11T23:27:28.998Z,0.6
2022-12-11T23:29:30.160Z,0.6
2022-12-11T23:31:31.351Z,0.6
2022-12-11T23:35:36.780Z,0.6
2022-12-11T23:37:37.908Z,0.6
2022-12-11T23:39:39.042Z,0.6
2022-12-11T23:41:40.160Z,0.6
2022-12-11T23:43:41.274Z,0.6
2022-12-11T23:45:42.378Z,0.6
2022-12-11T23:47:46.786Z,0.6
2022-12-11T23:49:47.891Z,0.6
2022-12-11T23:51:48.999Z,0.6
2022-12-11T23:54:17.458Z,0.6
2022-12-11T23:56:18.616Z,0.5
2022-12-11T23:58:19.730Z,0.5
